createdAt,value
2023-03-05T00:00:31.965Z,100926.00
2023-03-05T00:03:07.755Z,100924.00
2023-03-05T00:05:41.912Z,100921.00
2023-03-05T00:08:15.984Z,100919.00
2023-03-05T00:10:58.752Z,100903.00
2023-03-05T00:13:33.832Z,100888.00
2023-03-05T00:16:11.891Z,100885.00
2023-03-05T00:18:47.590Z,100909.00
2023-03-05T00:21:25.698Z,100907.00
2023-03-05T00:24:02.556Z,100906.00
2023-03-05T00:26:39.809Z,100897.00
2023-03-05T00:29:18.805Z,100878.00
2023-03-05T00:31:53.064Z,100886.00
2023-03-05T00:34:28.727Z,100884.00
2023-03-05T00:37:02.595Z,100884.00
2023-03-05T00:39:36.503Z,100897.00
2023-03-05T00:42:10.312Z,100893.00
2023-03-05T00:44:44.113Z,100885.00
2023-03-05T00:47:18.488Z,100886.00
2023-03-05T00:49:53.669Z,100880.00
2023-03-05T00:52:28.089Z,100883.00
2023-03-05T00:55:02.412Z,100880.00
2023-03-05T00:57:38.305Z,100877.00
2023-03-05T01:00:16.177Z,100875.00
2023-03-05T01:02:50.596Z,100878.00
2023-03-05T01:05:25.891Z,100871.00
2023-03-05T01:08:00.082Z,100865.00
2023-03-05T01:10:35.498Z,100869.00
2023-03-05T01:13:09.509Z,100862.00
2023-03-05T01:15:44.691Z,100857.00
2023-03-05T01:18:20.192Z,100864.00
2023-03-05T01:20:55.647Z,100859.00
2023-03-05T01:23:29.732Z,100865.00
2023-03-05T01:26:03.525Z,100854.00
2023-03-05T01:28:38.628Z,100849.00
2023-03-05T01:31:13.278Z,100849.00
2023-03-05T01:33:47.194Z,100839.00
2023-03-05T01:36:25.384Z,100839.00
2023-03-05T01:38:59.325Z,100843.00
2023-03-05T01:41:34.202Z,100843.00
2023-03-05T01:44:08.204Z,100838.00
2023-03-05T01:46:42.054Z,100844.00
2023-03-05T01:49:24.050Z,100838.00
2023-03-05T01:52:09.169Z,100830.00
2023-03-05T01:54:48.243Z,100823.00
2023-03-05T01:57:28.852Z,100816.00
2023-03-05T02:00:09.055Z,100817.00
2023-03-05T02:02:44.048Z,100817.00
2023-03-05T02:05:27.538Z,100812.00
2023-03-05T02:08:06.224Z,100804.00
2023-03-05T02:10:43.533Z,100795.00
2023-03-05T02:13:22.932Z,100798.00
2023-03-05T02:16:00.456Z,100800.00
2023-03-05T02:18:34.544Z,100796.00
2023-03-05T02:21:10.732Z,100784.00
2023-03-05T02:23:47.440Z,100783.00
2023-03-05T02:26:21.008Z,100788.00
2023-03-05T02:29:00.154Z,100780.00
2023-03-05T02:31:33.768Z,100775.00
2023-03-05T02:34:08.126Z,100773.00
2023-03-05T02:36:43.432Z,100773.00
2023-03-05T02:39:17.361Z,100771.00
2023-03-05T02:41:51.116Z,100768.00
2023-03-05T02:44:25.219Z,100765.00
2023-03-05T02:46:59.017Z,100772.00
2023-03-05T02:49:33.342Z,100767.00
2023-03-05T02:52:09.607Z,100762.00
2023-03-05T02:54:43.270Z,100767.00
2023-03-05T02:57:17.628Z,100765.00
2023-03-05T02:59:51.563Z,100761.00
2023-03-05T03:02:25.362Z,100752.00
2023-03-05T03:04:59.416Z,100741.00
2023-03-05T03:07:36.031Z,100733.00
2023-03-05T03:10:12.021Z,100741.00
2023-03-05T03:12:47.420Z,100735.00
2023-03-05T03:15:21.304Z,100736.00
2023-03-05T03:17:56.103Z,100737.00
2023-03-05T03:20:30.200Z,100725.00
2023-03-05T03:23:05.353Z,100724.00
2023-03-05T03:25:39.404Z,100720.00
2023-03-05T03:28:12.911Z,100723.00
2023-03-05T03:30:46.789Z,100710.00
2023-03-05T03:33:20.656Z,100710.00
2023-03-05T03:35:54.589Z,100706.00
2023-03-05T03:38:30.043Z,100697.00
2023-03-05T03:41:03.980Z,100700.00
2023-03-05T03:43:38.546Z,100697.00
2023-03-05T03:46:12.206Z,100696.00
2023-03-05T03:48:46.685Z,100694.00
2023-03-05T03:51:21.888Z,100681.00
2023-03-05T03:53:57.240Z,100687.00
2023-03-05T03:56:30.910Z,100689.00
2023-03-05T03:59:04.731Z,100680.00
2023-03-05T04:01:39.132Z,100674.00
2023-03-05T04:04:14.577Z,100663.00
2023-03-05T04:06:48.715Z,100663.00
2023-03-05T04:09:23.569Z,100662.00
2023-03-05T04:11:57.271Z,100660.00
2023-03-05T04:14:30.747Z,100661.00
2023-03-05T04:17:05.185Z,100656.00
2023-03-05T04:19:39.298Z,100661.00
2023-03-05T04:22:14.263Z,100664.00
2023-03-05T04:24:49.746Z,100628.00
2023-03-05T04:27:23.641Z,100666.00
2023-03-05T04:29:57.671Z,100652.00
2023-03-05T04:32:31.821Z,100646.00
2023-03-05T04:35:06.443Z,100642.00
2023-03-05T04:37:40.255Z,100643.00
2023-03-05T04:40:16.678Z,100636.00
2023-03-05T04:42:50.361Z,100632.00
2023-03-05T04:45:24.123Z,100629.00
2023-03-05T04:47:58.175Z,100628.00
2023-03-05T04:50:32.661Z,100626.00
2023-03-05T04:53:07.520Z,100622.00
2023-03-05T04:55:42.297Z,100618.00
2023-03-05T04:58:16.054Z,100624.00
2023-03-05T05:00:50.234Z,100624.00
2023-03-05T05:03:24.040Z,100615.00
2023-03-05T05:05:59.141Z,100621.00
2023-03-05T05:08:32.848Z,100596.00
2023-03-05T05:11:09.814Z,100622.00
2023-03-05T05:13:43.709Z,100621.00
2023-03-05T05:16:17.698Z,100630.00
2023-03-05T05:18:51.209Z,100623.00
2023-03-05T05:21:25.009Z,100608.00
2023-03-05T05:23:58.738Z,100606.00
2023-03-05T05:26:37.180Z,100564.00
2023-03-05T05:29:11.214Z,100600.00
2023-03-05T05:31:45.353Z,100606.00
2023-03-05T05:34:19.188Z,100613.00
2023-03-05T05:36:53.424Z,100614.00
2023-03-05T05:39:27.411Z,100611.00
2023-03-05T05:42:02.458Z,100594.00
2023-03-05T05:44:36.565Z,100596.00
2023-03-05T05:47:11.790Z,100614.00
2023-03-05T05:49:45.905Z,100613.00
2023-03-05T05:52:19.498Z,100607.00
2023-03-05T05:54:53.132Z,100599.00
2023-03-05T05:57:29.126Z,100604.00
2023-03-05T06:00:02.963Z,100598.00
2023-03-05T06:02:39.830Z,100594.00
2023-03-05T06:05:16.060Z,100562.00
2023-03-05T06:07:49.751Z,100580.00
2023-03-05T06:10:23.208Z,100591.00
2023-03-05T06:12:58.310Z,100578.00
2023-03-05T06:15:32.090Z,100577.00
2023-03-05T06:18:06.169Z,100592.00
2023-03-05T06:20:40.084Z,100562.00
2023-03-05T06:23:14.035Z,100578.00
2023-03-05T06:25:47.690Z,100596.00
2023-03-05T06:28:23.016Z,100594.00
2023-03-05T06:31:03.628Z,100594.00
2023-03-05T06:33:37.966Z,100591.00
2023-03-05T06:36:15.008Z,100574.00
2023-03-05T06:38:49.158Z,100594.00
2023-03-05T06:41:27.100Z,100587.00
2023-03-05T06:44:04.136Z,100568.00
2023-03-05T06:46:40.286Z,100561.00
2023-03-05T06:49:14.361Z,100586.00
2023-03-05T06:51:48.035Z,100557.00
2023-03-05T06:54:21.922Z,100582.00
2023-03-05T06:56:55.788Z,100575.00
2023-03-05T06:59:31.059Z,100571.00
2023-03-05T07:02:04.910Z,100540.00
2023-03-05T07:04:38.801Z,100574.00
2023-03-05T07:07:12.315Z,100574.00
2023-03-05T07:09:48.192Z,100574.00
2023-03-05T07:12:22.217Z,100568.00
2023-03-05T07:14:58.048Z,100568.00
2023-03-05T07:17:31.916Z,100567.00
2023-03-05T07:20:09.005Z,100562.00
2023-03-05T07:22:42.978Z,100568.00
2023-03-05T07:25:21.985Z,100541.00
2023-03-05T07:27:55.809Z,100566.00
2023-03-05T07:30:31.509Z,100561.00
2023-03-05T07:33:05.633Z,100562.00
2023-03-05T07:35:42.560Z,100538.00
2023-03-05T07:38:16.374Z,100564.00
2023-03-05T07:40:50.269Z,100552.00
2023-03-05T07:43:25.086Z,100547.00
2023-03-05T07:46:00.866Z,100548.00
2023-03-05T07:48:35.656Z,100552.00
2023-03-05T07:51:15.220Z,100538.00
2023-03-05T07:53:51.247Z,100549.00
2023-03-05T07:56:26.515Z,100550.00
2023-03-05T07:59:01.161Z,100537.00
2023-03-05T08:01:37.511Z,100542.00
2023-03-05T08:04:12.130Z,100538.00
2023-03-05T08:06:47.549Z,100539.00
2023-03-05T08:09:21.703Z,100544.00
2023-03-05T08:11:55.408Z,100532.00
2023-03-05T08:14:29.558Z,100538.00
2023-03-05T08:17:05.714Z,100531.00
2023-03-05T08:19:39.444Z,100533.00
2023-03-05T08:22:16.508Z,100535.00
2023-03-05T08:24:50.707Z,100538.00
2023-03-05T08:27:24.650Z,100535.00
2023-03-05T08:29:58.591Z,100538.00
2023-03-05T08:32:33.673Z,100526.00
2023-03-05T08:35:09.645Z,100532.00
2023-03-05T08:37:43.382Z,100522.00
2023-03-05T08:40:19.394Z,100523.00
2023-03-05T08:42:53.147Z,100516.00
2023-03-05T08:45:27.992Z,100518.00
2023-03-05T08:48:03.169Z,100518.00
2023-03-05T08:50:39.056Z,100515.00
2023-03-05T08:53:13.166Z,100516.00
2023-03-05T08:55:57.011Z,100511.00
2023-03-05T08:58:31.599Z,100512.00
2023-03-05T09:01:06.095Z,100486.00
2023-03-05T09:03:41.891Z,100514.00
2023-03-05T09:06:15.491Z,100507.00
2023-03-05T09:08:49.617Z,100511.00
2023-03-05T09:11:23.493Z,100513.00
2023-03-05T09:13:59.540Z,100499.00
2023-03-05T09:16:33.612Z,100505.00
2023-03-05T09:19:10.909Z,100485.00
2023-03-05T09:21:44.583Z,100495.00
2023-03-05T09:24:18.879Z,100498.00
2023-03-05T09:26:52.443Z,100488.00
2023-03-05T09:29:27.133Z,100489.00
2023-03-05T09:32:01.121Z,100487.00
2023-03-05T09:34:36.327Z,100490.00
2023-03-05T09:37:10.652Z,100476.00
2023-03-05T09:39:44.379Z,100477.00
2023-03-05T09:42:59.390Z,100481.00
2023-03-05T09:45:41.426Z,100481.00
2023-03-05T09:48:23.241Z,100476.00
2023-03-05T09:51:04.706Z,100472.00
2023-03-05T09:53:46.561Z,100468.00
2023-03-05T09:56:27.367Z,100479.00
2023-03-05T09:59:15.693Z,100475.00
2023-03-05T10:01:53.768Z,100471.00
2023-03-05T10:04:44.649Z,100459.00
2023-03-05T10:07:27.761Z,100458.00
2023-03-05T10:10:05.621Z,100460.00
2023-03-05T10:12:44.227Z,100458.00
2023-03-05T10:15:28.746Z,100452.00
2023-03-05T10:18:28.987Z,100450.00
2023-03-05T10:21:08.006Z,100453.00
2023-03-05T10:24:04.556Z,100449.00
2023-03-05T10:26:59.252Z,100449.00
2023-03-05T10:30:00.313Z,100429.00
2023-03-05T10:32:46.839Z,100424.00
2023-03-05T10:35:41.940Z,100438.00
2023-03-05T10:38:55.184Z,100430.00
2023-03-05T10:41:39.912Z,100425.00
2023-03-05T10:44:19.974Z,100423.00
2023-03-05T10:46:56.723Z,100411.00
2023-03-05T10:49:36.707Z,100422.00
2023-03-05T10:52:18.856Z,100414.00
2023-03-05T10:54:54.250Z,100412.00
2023-03-05T10:57:32.436Z,100411.00
2023-03-05T11:00:20.110Z,100415.00
2023-03-05T11:03:02.047Z,100393.00
2023-03-05T11:05:46.868Z,100410.00
2023-03-05T11:08:35.452Z,100409.00
2023-03-05T11:11:20.482Z,100409.00
2023-03-05T11:13:58.538Z,100400.00
2023-03-05T11:16:35.313Z,100403.00
2023-03-05T11:19:22.588Z,100404.00
2023-03-05T11:22:14.464Z,100395.00
2023-03-05T11:25:16.492Z,100398.00
2023-03-05T11:27:57.638Z,100394.00
2023-03-05T11:30:34.122Z,100390.00
2023-03-05T11:33:18.243Z,100382.00
2023-03-05T11:36:13.312Z,100383.00
2023-03-05T11:38:53.708Z,100374.00
2023-03-05T11:41:40.940Z,100379.00
2023-03-05T11:44:23.112Z,100392.00
2023-03-05T11:47:03.292Z,100376.00
2023-03-05T11:49:47.274Z,100371.00
2023-03-05T11:52:28.094Z,100372.00
2023-03-05T11:55:12.657Z,100360.00
2023-03-05T11:57:54.134Z,100367.00
2023-03-05T12:00:39.260Z,100360.00
2023-03-05T12:03:18.115Z,100362.00
2023-03-05T12:05:58.270Z,100350.00
2023-03-05T12:08:36.502Z,100349.00
2023-03-05T12:11:20.527Z,100340.00
2023-03-05T12:14:00.827Z,100330.00
2023-03-05T12:16:43.883Z,100330.00
2023-03-05T12:19:42.750Z,100304.00
2023-03-05T12:22:25.000Z,100310.00
2023-03-05T12:25:29.524Z,100283.00
2023-03-05T12:28:04.617Z,100310.00
2023-03-05T12:31:00.749Z,100306.00
2023-03-05T12:33:39.315Z,100307.00
2023-03-05T12:36:39.835Z,100301.00
2023-03-05T12:39:52.815Z,100297.00
2023-03-05T12:42:53.660Z,100263.00
2023-03-05T12:45:40.406Z,100283.00
2023-03-05T12:48:46.563Z,100283.00
2023-03-05T12:51:37.240Z,100273.00
2023-03-05T12:54:34.982Z,100247.00
2023-03-05T12:57:20.309Z,100257.00
2023-03-05T13:00:02.544Z,100251.00
2023-03-05T13:02:40.809Z,100254.00
2023-03-05T13:05:24.060Z,100247.00
2023-03-05T13:08:16.212Z,100240.00
2023-03-05T13:10:56.511Z,100239.00
2023-03-05T13:13:35.064Z,100228.00
2023-03-05T13:16:20.136Z,100222.00
2023-03-05T13:18:56.012Z,100203.00
2023-03-05T13:21:35.398Z,100222.00
2023-03-05T13:24:19.175Z,100205.00
2023-03-05T13:26:53.945Z,100209.00
2023-03-05T13:29:31.063Z,100187.00
2023-03-05T13:32:25.870Z,100206.00
2023-03-05T13:35:02.397Z,100200.00
2023-03-05T13:37:40.131Z,100204.00
2023-03-05T13:40:24.325Z,100200.00
2023-03-05T13:43:12.108Z,100192.00
2023-03-05T13:45:55.382Z,100188.00
2023-03-05T13:48:29.487Z,100183.00
2023-03-05T13:51:06.838Z,100182.00
2023-03-05T13:53:41.916Z,100177.00
2023-03-05T13:56:18.961Z,100180.00
2023-03-05T13:58:55.271Z,100156.00
2023-03-05T14:01:33.247Z,100171.00
2023-03-05T14:04:18.143Z,100167.00
2023-03-05T14:06:58.925Z,100154.00
2023-03-05T14:09:48.870Z,100160.00
2023-03-05T14:12:30.383Z,100154.00
2023-03-05T14:15:07.667Z,100147.00
2023-03-05T14:17:43.417Z,100154.00
2023-03-05T14:20:27.594Z,100132.00
2023-03-05T14:23:03.872Z,100152.00
2023-03-05T14:25:40.815Z,100146.00
2023-03-05T14:28:30.131Z,100140.00
2023-03-05T14:31:03.679Z,100134.00
2023-03-05T14:33:37.426Z,100123.00
2023-03-05T14:36:12.885Z,100122.00
2023-03-05T14:38:46.401Z,100118.00
2023-03-05T14:41:40.338Z,100124.00
2023-03-05T14:44:19.096Z,100121.00
2023-03-05T14:46:52.878Z,100110.00
2023-03-05T14:49:26.817Z,100114.00
2023-03-05T14:52:01.212Z,100100.00
2023-03-05T14:54:38.863Z,100099.00
2023-03-05T14:57:19.854Z,100100.00
2023-03-05T14:59:54.306Z,100091.00
2023-03-05T15:02:29.359Z,100084.00
2023-03-05T15:05:03.531Z,100080.00
2023-03-05T15:07:38.288Z,100070.00
2023-03-05T15:10:17.274Z,100070.00
2023-03-05T15:12:53.647Z,100067.00
2023-03-05T15:15:28.431Z,100073.00
2023-03-05T15:18:02.376Z,100068.00
2023-03-05T15:20:37.374Z,100063.00
2023-03-05T15:23:12.498Z,100059.00
2023-03-05T15:25:46.878Z,100055.00
2023-03-05T15:28:23.017Z,100062.00
2023-03-05T15:30:59.677Z,100048.00
2023-03-05T15:33:35.375Z,100051.00
2023-03-05T15:36:10.130Z,100048.00
2023-03-05T15:38:44.970Z,100053.00
2023-03-05T15:41:18.628Z,100043.00
2023-03-05T15:43:53.724Z,100041.00
2023-03-05T15:46:27.702Z,100047.00
2023-03-05T15:49:02.727Z,100036.00
2023-03-05T15:51:36.513Z,100030.00
2023-03-05T15:54:11.172Z,100016.00
2023-03-05T15:56:44.952Z,100028.00
2023-03-05T15:59:21.823Z,100030.00
2023-03-05T16:01:55.806Z,100019.00
2023-03-05T16:04:30.426Z,100015.00
2023-03-05T16:07:06.435Z,100018.00
2023-03-05T16:09:45.858Z,100005.00
2023-03-05T16:12:25.124Z,100002.00
2023-03-05T16:15:00.652Z,100001.00
2023-03-05T16:17:35.216Z,100001.00
2023-03-05T16:20:12.039Z,99999.00
2023-03-05T16:22:46.412Z,99998.00
2023-03-05T16:25:21.900Z,100000.00
2023-03-05T16:27:55.855Z,99996.00
2023-03-05T16:30:33.207Z,99977.00
2023-03-05T16:33:08.085Z,99993.00
2023-03-05T16:35:41.819Z,99983.00
2023-03-05T16:38:15.858Z,99982.00
2023-03-05T16:41:07.223Z,99977.00
2023-03-05T16:43:41.610Z,99978.00
2023-03-05T16:46:18.116Z,99975.00
2023-03-05T16:48:52.501Z,99977.00
2023-03-05T16:51:27.358Z,99975.00
2023-03-05T16:54:01.896Z,99978.00
2023-03-05T16:56:36.552Z,99980.00
2023-03-05T16:59:10.105Z,99975.00
2023-03-05T17:01:46.121Z,99975.00
2023-03-05T17:04:19.758Z,99980.00
2023-03-05T17:06:55.574Z,99968.00
2023-03-05T17:09:29.167Z,99971.00
2023-03-05T17:12:03.947Z,99974.00
2023-03-05T17:14:38.050Z,99972.00
2023-03-05T17:17:13.524Z,99972.00
2023-03-05T17:19:47.010Z,99978.00
2023-03-05T17:22:21.249Z,99966.00
2023-03-05T17:24:54.803Z,99963.00
2023-03-05T17:27:29.615Z,99966.00
2023-03-05T17:30:03.717Z,99963.00
2023-03-05T17:32:39.067Z,99963.00
2023-03-05T17:35:19.932Z,99955.00
2023-03-05T17:37:55.858Z,99955.00
2023-03-05T17:40:29.999Z,99956.00
2023-03-05T17:43:04.597Z,99954.00
2023-03-05T17:45:38.890Z,99957.00
2023-03-05T17:48:15.064Z,99953.00
2023-03-05T17:50:48.831Z,99952.00
2023-03-05T17:53:23.117Z,99956.00
2023-03-05T17:55:56.824Z,99949.00
2023-03-05T17:58:30.838Z,99953.00
2023-03-05T18:01:06.404Z,99962.00
2023-03-05T18:03:42.086Z,99952.00
2023-03-05T18:06:15.768Z,99938.00
2023-03-05T18:08:50.872Z,99949.00
2023-03-05T18:11:24.878Z,99946.00
2023-03-05T18:13:58.717Z,99946.00
2023-03-05T18:16:32.629Z,99947.00
2023-03-05T18:19:09.880Z,99942.00
2023-03-05T18:21:44.064Z,99940.00
2023-03-05T18:24:18.840Z,99938.00
2023-03-05T18:26:53.660Z,99943.00
2023-03-05T18:29:28.109Z,99937.00
2023-03-05T18:32:02.526Z,99944.00
2023-03-05T18:34:38.281Z,99934.00
2023-03-05T18:37:11.818Z,99937.00
2023-03-05T18:39:45.836Z,99931.00
2023-03-05T18:42:19.754Z,99919.00
2023-03-05T18:44:53.618Z,99925.00
2023-03-05T18:47:28.381Z,99917.00
2023-03-05T18:50:03.597Z,99916.00
2023-03-05T18:52:38.910Z,99910.00
2023-03-05T18:55:17.304Z,99913.00
2023-03-05T18:57:52.017Z,99881.00
2023-03-05T19:00:29.850Z,99897.00
2023-03-05T19:03:05.708Z,99901.00
2023-03-05T19:05:42.955Z,99904.00
2023-03-05T19:08:16.728Z,99898.00
2023-03-05T19:10:51.300Z,99896.00
2023-03-05T19:13:35.502Z,99894.00
2023-03-05T19:16:12.876Z,99890.00
2023-03-05T19:18:57.581Z,99888.00
2023-03-05T19:21:32.998Z,99891.00
2023-03-05T19:24:07.351Z,99885.00
2023-03-05T19:26:42.161Z,99887.00
2023-03-05T19:29:16.734Z,99885.00
2023-03-05T19:31:53.385Z,99882.00
2023-03-05T19:34:26.920Z,99875.00
2023-03-05T19:37:02.118Z,99872.00
2023-03-05T19:39:37.493Z,99865.00
2023-03-05T19:42:11.276Z,99863.00
2023-03-05T19:44:45.088Z,99870.00
2023-03-05T19:47:18.749Z,99843.00
2023-03-05T19:49:53.478Z,99860.00
2023-03-05T19:52:28.821Z,99864.00
2023-03-05T19:55:02.489Z,99860.00
2023-03-05T19:57:36.253Z,99859.00
2023-03-05T20:00:11.902Z,99855.00
2023-03-05T20:02:46.059Z,99861.00
2023-03-05T20:05:23.294Z,99851.00
2023-03-05T20:07:58.827Z,99847.00
2023-03-05T20:10:32.467Z,99847.00
2023-03-05T20:13:06.054Z,99848.00
2023-03-05T20:15:39.671Z,99848.00
2023-03-05T20:18:13.555Z,99847.00
2023-03-05T20:20:52.605Z,99843.00
2023-03-05T20:23:29.014Z,99827.00
2023-03-05T20:26:04.985Z,99833.00
2023-03-05T20:28:38.580Z,99838.00
2023-03-05T20:31:13.266Z,99826.00
2023-03-05T20:33:46.726Z,99838.00
2023-03-05T20:36:20.583Z,99835.00
2023-03-05T20:38:55.873Z,99832.00
2023-03-05T20:41:31.605Z,99822.00
2023-03-05T20:44:06.561Z,99827.00
2023-03-05T20:46:53.890Z,99819.00
2023-03-05T20:49:27.875Z,99792.00
2023-03-05T20:52:01.509Z,99812.00
2023-03-05T20:54:36.856Z,99812.00
2023-03-05T20:57:11.851Z,99805.00
2023-03-05T20:59:45.566Z,99807.00
2023-03-05T21:02:19.836Z,99807.00
2023-03-05T21:04:53.653Z,99803.00
2023-03-05T21:07:29.771Z,99800.00
2023-03-05T21:10:06.591Z,99791.00
2023-03-05T21:12:40.523Z,99794.00
2023-03-05T21:15:17.129Z,99785.00
2023-03-05T21:17:52.343Z,99783.00
2023-03-05T21:20:30.512Z,99784.00
2023-03-05T21:23:04.872Z,99777.00
2023-03-05T21:25:40.223Z,99762.00
2023-03-05T21:28:17.749Z,99779.00
2023-03-05T21:30:54.504Z,99774.00
2023-03-05T21:33:31.346Z,99770.00
2023-03-05T21:36:05.306Z,99778.00
2023-03-05T21:38:39.579Z,99766.00
2023-03-05T21:41:15.671Z,99763.00
2023-03-05T21:43:49.152Z,99765.00
2023-03-05T21:46:23.080Z,99722.00
2023-03-05T21:48:56.888Z,99770.00
2023-03-05T21:51:39.098Z,99760.00
2023-03-05T21:54:12.818Z,99753.00
2023-03-05T21:56:48.017Z,99749.00
2023-03-05T21:59:21.505Z,99745.00
2023-03-05T22:01:55.450Z,99742.00
2023-03-05T22:04:29.817Z,99735.00
2023-03-05T22:07:06.152Z,99730.00
2023-03-05T22:09:40.037Z,99727.00
2023-03-05T22:12:23.213Z,99721.00
2023-03-05T22:14:57.392Z,99713.00
2023-03-05T22:17:31.468Z,99707.00
2023-03-05T22:20:06.064Z,99711.00
2023-03-05T22:22:40.297Z,99705.00
2023-03-05T22:25:15.758Z,99700.00
2023-03-05T22:27:51.161Z,99698.00
2023-03-05T22:30:25.311Z,99677.00
2023-03-05T22:32:59.211Z,99691.00
2023-03-05T22:35:33.356Z,99687.00
2023-03-05T22:38:07.106Z,99679.00
2023-03-05T22:40:44.480Z,99680.00
2023-03-05T22:43:21.261Z,99685.00
2023-03-05T22:45:54.906Z,99674.00
2023-03-05T22:48:28.737Z,99685.00
2023-03-05T22:51:02.826Z,99670.00
2023-03-05T22:53:37.167Z,99670.00
2023-03-05T22:56:14.416Z,99670.00
2023-03-05T22:58:50.084Z,99671.00
2023-03-05T23:01:26.346Z,99650.00
2023-03-05T23:04:08.490Z,99662.00
2023-03-05T23:06:42.515Z,99657.00
2023-03-05T23:09:17.374Z,99656.00
2023-03-05T23:11:51.372Z,99657.00
2023-03-05T23:14:26.903Z,99659.00
2023-03-05T23:17:00.754Z,99653.00
2023-03-05T23:19:39.809Z,99651.00
2023-03-05T23:22:16.144Z,99658.00
2023-03-05T23:24:50.433Z,99653.00
2023-03-05T23:27:25.417Z,99645.00
2023-03-05T23:30:12.930Z,99640.00
2023-03-05T23:32:50.007Z,99630.00
2023-03-05T23:35:27.288Z,99635.00
2023-03-05T23:38:04.137Z,99632.00
2023-03-05T23:40:43.190Z,99636.00
2023-03-05T23:43:19.459Z,99633.00
2023-03-05T23:45:56.210Z,99627.00
2023-03-05T23:48:31.888Z,99628.00
2023-03-05T23:51:10.838Z,99627.00
2023-03-05T23:53:44.752Z,99626.00
2023-03-05T23:56:18.263Z,99618.00
2023-03-05T23:58:51.617Z,99595.00
